Time;durP1;ratioP1;P1;durP2;ratioP2;P2;SDS_P1;SDS_P2;PMS_P1;PMS_P2;Temp;Humidity;BMP_temperature;BMP_pressure;BME280_temperature;BME280_humidity;BME280_pressure;Samples;Min_cycle;Max_cycle;Signal;HPM_P1;HPM_P2
2021/04/04 00:00:08;;;;;;;12.93;6.57;;;;;;;4.48;69.36;100853.25;5039303;27;101469;-74
2021/04/04 00:02:37;;;;;;;11.63;6.03;;;;;;;4.44;69.21;100850.66;5055052;27;96601;-74
2021/04/04 00:05:05;;;;;;;12.27;6.47;;;;;;;4.43;69.38;100852.38;5057132;27;96882;-73
2021/04/04 00:07:30;;;;;;;11.27;6.67;;;;;;;4.44;68.86;100861.91;5039944;27;100908;-73
2021/04/04 00:09:56;;;;;;;13.43;7.27;;;;;;;4.36;69.31;100873.19;5039080;27;101288;-75
2021/04/04 00:12:22;;;;;;;12.27;6.27;;;;;;;4.37;69.32;100864.53;5023508;27;96906;-73
2021/04/04 00:14:47;;;;;;;13.27;6.67;;;;;;;4.34;69.26;100870.59;5040650;27;97135;-73
2021/04/04 00:17:13;;;;;;;12.87;6.10;;;;;;;4.38;69.33;100863.66;5038217;27;101056;-73
2021/04/04 00:19:38;;;;;;;12.73;6.27;;;;;;;4.42;69.40;100873.16;5040109;27;97925;-73
2021/04/04 00:22:04;;;;;;;13.77;6.30;;;;;;;4.39;69.08;100865.38;5039090;27;96867;-73
2021/04/04 00:24:29;;;;;;;10.00;5.67;;;;;;;4.33;69.45;100868.84;5039689;27;96960;-73
2021/04/04 00:26:55;;;;;;;10.63;6.47;;;;;;;4.47;69.16;100863.66;5022421;27;101061;-74
2021/04/04 00:29:21;;;;;;;18.80;10.77;;;;;;;4.54;68.77;100868.84;5022484;27;100775;-73
2021/04/04 00:31:46;;;;;;;11.77;6.93;;;;;;;4.56;69.05;100873.19;5039919;27;97093;-73
2021/04/04 00:34:12;;;;;;;13.77;6.57;;;;;;;4.53;68.93;100864.50;5039076;27;97090;-73
2021/04/04 00:36:37;;;;;;;11.00;5.97;;;;;;;4.55;69.16;100861.91;5039802;27;98173;-73
2021/04/04 00:39:07;;;;;;;11.67;6.20;;;;;;;4.53;69.26;100867.09;5038414;27;101146;-73
2021/04/04 00:41:34;;;;;;;11.90;5.67;;;;;;;4.57;69.04;100864.50;5038980;27;97610;-73
2021/04/04 00:43:59;;;;;;;13.03;7.03;;;;;;;4.58;69.08;100863.66;5055975;27;96913;-73
2021/04/04 00:46:25;;;;;;;11.80;7.03;;;;;;;4.63;68.36;100859.31;5022078;27;101044;-73
2021/04/04 00:48:50;;;;;;;10.53;6.17;;;;;;;4.51;69.39;100860.19;5039486;27;101220;-73
2021/04/04 00:51:16;;;;;;;16.80;6.73;;;;;;;4.57;68.99;100855.00;5055751;27;96785;-73
2021/04/04 00:53:43;;;;;;;13.17;6.40;;;;;;;4.54;69.20;100860.19;5039798;27;96805;-73
2021/04/04 00:56:10;;;;;;;12.13;6.93;;;;;;;4.49;69.83;100862.78;5055311;27;101915;-73
2021/04/04 00:58:35;;;;;;;11.50;6.73;;;;;;;4.50;69.54;100858.44;5039233;27;101601;-73
2021/04/04 01:01:01;;;;;;;13.53;6.93;;;;;;;4.53;69.36;100856.69;5038732;27;96685;-73
2021/04/04 01:03:27;;;;;;;10.80;6.27;;;;;;;4.52;69.40;100856.72;5039934;27;96895;-73
2021/04/04 01:05:54;;;;;;;13.50;7.07;;;;;;;4.61;69.13;100855.84;5039035;27;100865;-73
2021/04/04 01:08:20;;;;;;;13.23;6.83;;;;;;;4.58;68.86;100842.84;5038151;27;101159;-73
2021/04/04 01:10:47;;;;;;;12.20;6.20;;;;;;;4.45;69.34;100850.66;5039316;27;96689;-73
2021/04/04 01:13:20;;;;;;;13.37;6.77;;;;;;;4.41;69.86;100859.31;5038515;27;97143;-73
2021/04/04 01:15:46;;;;;;;13.63;6.83;;;;;;;4.41;69.75;100856.72;5038929;27;101142;-73
2021/04/04 01:18:18;;;;;;;11.47;6.60;;;;;;;4.38;69.65;100853.25;5073660;27;97367;-73
2021/04/04 01:20:44;;;;;;;9.30;6.40;;;;;;;4.43;69.66;100857.59;5039311;27;96598;-73
2021/04/04 01:23:48;;;;;;;12.17;6.97;;;;;;;4.36;69.71;100853.25;5055737;27;96732;-73
2021/04/04 01:26:42;;;;;;;10.93;5.93;;;;;;;4.34;69.88;100855.00;5038013;27;101844;-73
2021/04/04 01:29:11;;;;;;;10.37;6.13;;;;;;;4.42;69.62;100861.06;5037542;27;97081;-73
2021/04/04 01:31:37;;;;;;;11.07;6.40;;;;;;;4.39;69.57;100857.56;5055897;27;96993;-73
2021/04/04 01:34:03;;;;;;;14.33;7.17;;;;;;;4.44;69.20;100858.44;5055139;27;96946;-75
2021/04/04 01:36:30;;;;;;;11.33;5.63;;;;;;;4.41;69.28;100851.50;5055346;27;97900;-73
2021/04/04 01:38:56;;;;;;;10.63;5.43;;;;;;;4.40;69.04;100856.72;5038439;27;100952;-73
2021/04/04 01:41:25;;;;;;;11.43;6.07;;;;;;;4.38;69.17;100856.72;5020676;27;96801;-73
2021/04/04 01:43:53;;;;;;;13.80;6.43;;;;;;;4.32;69.13;100867.13;5021999;27;96850;-73
2021/04/04 01:46:19;;;;;;;11.83;6.23;;;;;;;4.15;69.56;100869.69;5037605;27;101580;-73
2021/04/04 01:48:45;;;;;;;9.40;5.63;;;;;;;4.12;69.35;100871.44;5055377;27;101029;-73
2021/04/04 01:51:12;;;;;;;11.90;5.93;;;;;;;4.17;69.34;100873.19;5038504;27;97090;-73
2021/04/04 01:53:40;;;;;;;12.73;6.03;;;;;;;3.95;69.97;100879.19;5039120;27;96993;-73
2021/04/04 01:56:06;;;;;;;9.80;5.50;;;;;;;3.87;69.88;100871.41;5054578;27;98030;-73
2021/04/04 01:58:33;;;;;;;11.67;6.20;;;;;;;3.89;70.27;100866.19;5038298;27;101041;-73
2021/04/04 02:00:59;;;;;;;13.37;6.30;;;;;;;3.84;70.16;100861.00;5021245;27;96859;-73
2021/04/04 02:03:26;;;;;;;8.27;5.33;;;;;;;3.89;69.62;100861.00;5020977;27;96903;-73
2021/04/04 02:05:52;;;;;;;11.47;5.50;;;;;;;3.89;69.56;100859.28;5038143;27;101538;-73
2021/04/04 02:08:19;;;;;;;13.57;6.57;;;;;;;3.91;69.55;100862.75;5020560;27;101262;-73
2021/04/04 02:10:45;;;;;;;15.63;7.03;;;;;;;3.83;69.67;100857.53;5021526;27;96710;-73
2021/04/04 02:13:11;;;;;;;11.90;6.40;;;;;;;3.66;70.39;100861.81;5054605;27;96822;-73
2021/04/04 02:15:37;;;;;;;15.00;7.63;;;;;;;3.78;69.57;100867.06;5037950;27;102119;-73
2021/04/04 02:18:07;;;;;;;13.80;7.10;;;;;;;3.73;69.84;100876.56;5071619;27;97514;-74
2021/04/04 02:20:33;;;;;;;13.43;7.13;;;;;;;3.70;70.17;100875.69;5021618;27;96940;-73
2021/04/04 02:23:00;;;;;;;16.10;7.50;;;;;;;3.67;70.02;100863.56;5072583;27;96871;-73
2021/04/04 02:25:26;;;;;;;12.97;7.57;;;;;;;3.70;69.84;100863.56;5019949;27;101544;-73
2021/04/04 02:27:52;;;;;;;15.73;7.57;;;;;;;3.69;70.45;100864.41;5037781;27;101505;-73
2021/04/04 02:30:18;;;;;;;16.47;7.03;;;;;;;3.63;70.43;100854.88;5037353;27;97092;-73
2021/04/04 02:32:49;;;;;;;13.07;7.30;;;;;;;3.71;70.26;100854.03;5021684;27;96908;-73
2021/04/04 02:35:18;;;;;;;10.63;6.73;;;;;;;3.63;70.40;100856.59;5020599;27;99895;-73
2021/04/04 02:37:45;;;;;;;14.80;7.27;;;;;;;3.60;70.67;100867.84;5037901;27;101224;-73
2021/04/04 02:40:12;;;;;;;11.77;6.57;;;;;;;3.61;70.69;100856.63;5037365;27;96686;-73
2021/04/04 02:42:38;;;;;;;14.53;6.57;;;;;;;3.70;70.73;100855.78;5059169;27;96863;-73
2021/04/04 02:45:06;;;;;;;13.37;7.27;;;;;;;3.72;70.12;100861.81;5058120;27;97958;-77
2021/04/04 02:47:36;;;;;;;13.70;6.83;;;;;;;3.75;70.17;100860.97;5041406;27;101392;-73
2021/04/04 02:50:03;;;;;;;11.13;6.40;;;;;;;3.74;70.10;100860.09;5041190;27;97220;-73
2021/04/04 02:52:29;;;;;;;11.13;6.30;;;;;;;3.68;70.20;100849.72;5024030;27;97125;-73
2021/04/04 02:54:56;;;;;;;11.20;5.73;;;;;;;3.67;70.07;100847.13;5041269;27;101818;-73
2021/04/04 02:57:26;;;;;;;10.03;6.17;;;;;;;3.62;70.37;100857.47;5040358;27;101506;-73
2021/04/04 02:59:54;;;;;;;12.93;6.20;;;;;;;3.66;70.07;100859.22;5041529;27;96582;-73
2021/04/04 03:02:20;;;;;;;10.77;5.47;;;;;;;3.57;69.94;100860.06;5057501;27;97303;-73
2021/04/04 03:04:48;;;;;;;15.23;5.83;;;;;;;3.61;70.23;100863.56;5040686;27;101457;-73
2021/04/04 03:07:23;;;;;;;10.97;6.10;;;;;;;3.58;70.10;100861.81;5057389;27;101521;-73
2021/04/04 03:09:51;;;;;;;10.60;5.40;;;;;;;3.63;70.08;100854.88;5040990;27;97093;-73
2021/04/04 03:12:18;;;;;;;12.10;5.70;;;;;;;3.62;69.77;100860.06;5057443;27;96849;-73
2021/04/04 03:14:44;;;;;;;10.23;5.93;;;;;;;3.50;70.54;100860.91;5057230;27;98130;-73
2021/04/04 03:17:11;;;;;;;9.83;5.83;;;;;;;3.51;70.38;100860.03;5056962;27;101573;-77
2021/04/04 03:19:41;;;;;;;9.70;5.70;;;;;;;3.48;70.11;100856.56;5057970;27;97228;-73
2021/04/04 03:22:07;;;;;;;11.10;5.97;;;;;;;3.55;69.65;100861.78;5024130;27;97286;-74
2021/04/04 03:24:34;;;;;;;10.57;5.73;;;;;;;3.51;69.78;100853.97;5057117;27;101789;-73
2021/04/04 03:27:00;;;;;;;9.80;5.43;;;;;;;3.43;69.96;100856.53;5040563;27;101082;-73
2021/04/04 03:29:25;;;;;;;12.40;6.00;;;;;;;3.35;70.00;100863.44;5057056;27;97183;-73
2021/04/04 03:31:51;;;;;;;13.83;6.10;;;;;;;3.24;70.18;100860.81;5024414;27;97037;-73
2021/04/04 03:34:17;;;;;;;12.00;5.90;;;;;;;3.34;70.09;100866.88;5040041;27;98036;-73
2021/04/04 03:36:43;;;;;;;14.90;6.80;;;;;;;3.35;69.73;100855.66;5040335;27;101481;-72
2021/04/04 03:39:08;;;;;;;9.47;5.73;;;;;;;3.25;69.96;100852.16;5056889;27;96603;-75
2021/04/04 03:41:35;;;;;;;16.73;6.00;;;;;;;3.24;70.01;100857.34;5022533;27;96864;-73
2021/04/04 03:44:00;;;;;;;12.27;5.87;;;;;;;3.16;70.25;100854.72;5040183;27;101784;-73
2021/04/04 03:46:29;;;;;;;10.83;5.53;;;;;;;3.24;69.83;100858.22;5039510;27;100585;-75
2021/04/04 03:48:55;;;;;;;13.40;6.50;;;;;;;3.13;70.04;100849.50;5023899;27;96621;-75
2021/04/04 03:51:25;;;;;;;13.30;6.30;;;;;;;3.17;70.08;100862.50;5038960;27;97040;-75
2021/04/04 03:53:53;;;;;;;9.83;6.10;;;;;;;3.14;69.87;100864.19;5022509;27;101401;-75
2021/04/04 03:56:22;;;;;;;13.00;5.67;;;;;;;3.20;69.75;100863.38;5039702;27;101256;-75
2021/04/04 03:58:48;;;;;;;10.90;5.53;;;;;;;3.11;69.88;100861.59;5057105;27;96878;-74
2021/04/04 04:01:15;;;;;;;10.30;5.47;;;;;;;3.02;70.08;100869.31;5023059;27;97282;-77
2021/04/04 04:03:40;;;;;;;13.43;6.57;;;;;;;2.96;69.98;100864.97;5039465;27;101804;-75
2021/04/04 04:06:09;;;;;;;15.50;6.00;;;;;;;3.01;69.97;100863.28;5040303;27;97955;-75
2021/04/04 04:08:37;;;;;;;11.20;5.53;;;;;;;3.00;69.87;100863.28;5039358;27;96575;-75
2021/04/04 04:11:03;;;;;;;13.83;5.83;;;;;;;3.04;69.59;100867.63;5040597;27;96765;-75
2021/04/04 04:13:29;;;;;;;9.97;6.17;;;;;;;3.08;69.47;100864.16;5056064;27;101204;-75
2021/04/04 04:15:55;;;;;;;12.53;6.33;;;;;;;3.09;69.49;100856.41;5040167;27;97930;-75
2021/04/04 04:18:21;;;;;;;9.70;5.73;;;;;;;3.04;69.67;100865.03;5039573;27;97305;-75
2021/04/04 04:20:47;;;;;;;10.57;5.50;;;;;;;3.04;69.20;100854.66;5057456;27;96961;-75
2021/04/04 04:23:13;;;;;;;12.10;5.83;;;;;;;2.95;69.89;100858.06;5039503;27;101424;-77
2021/04/04 04:25:40;;;;;;;9.33;5.17;;;;;;;3.00;69.63;100860.69;5039358;27;101090;-75
2021/04/04 04:28:08;;;;;;;13.27;6.07;;;;;;;3.00;69.79;100855.50;5022851;27;97152;-75
2021/04/04 04:30:34;;;;;;;11.40;6.50;;;;;;;3.03;69.17;100863.31;5039121;27;97375;-73
2021/04/04 04:33:02;;;;;;;11.33;5.80;;;;;;;2.89;69.73;100852.84;5039619;27;100851;-73
2021/04/04 04:35:29;;;;;;;10.80;5.30;;;;;;;2.83;70.38;100864.03;5038795;27;100298;-73
2021/04/04 04:37:55;;;;;;;12.33;6.77;;;;;;;2.98;70.03;100863.25;5039616;27;96722;-74
2021/04/04 04:40:21;;;;;;;12.40;6.57;;;;;;;3.06;69.71;100861.59;5038854;27;96760;-73
2021/04/04 04:42:49;;;;;;;17.97;6.37;;;;;;;3.04;70.33;100862.44;5073289;27;101119;-73
2021/04/04 04:45:30;;;;;;;9.90;5.50;;;;;;;3.08;70.08;100864.16;5039448;27;100045;-75
2021/04/04 04:47:56;;;;;;;10.93;6.07;;;;;;;3.13;70.08;100862.47;5056417;27;96729;-73
2021/04/04 04:50:22;;;;;;;11.73;6.50;;;;;;;3.33;69.55;100867.75;5039187;27;96791;-73
2021/04/04 04:52:49;;;;;;;12.00;6.27;;;;;;;3.28;69.19;100852.16;5022062;27;101444;-73
2021/04/04 04:55:14;;;;;;;11.23;6.20;;;;;;;3.38;69.23;100863.47;5038361;27;100530;-75
2021/04/04 04:57:40;;;;;;;9.23;6.73;;;;;;;3.33;68.57;100867.75;5038843;27;96574;-73
2021/04/04 05:00:08;;;;;;;11.50;6.37;;;;;;;3.41;68.68;100868.66;5039856;27;96751;-73
2021/04/04 05:02:34;;;;;;;15.37;6.53;;;;;;;3.47;68.11;100866.09;5038242;27;101453;-73
2021/04/04 05:05:00;;;;;;;11.40;6.57;;;;;;;3.40;68.30;100872.09;5039054;27;101096;-73
2021/04/04 05:07:28;;;;;;;12.60;7.10;;;;;;;3.47;68.16;100867.81;5055768;27;97835;-73
2021/04/04 05:09:53;;;;;;;15.40;7.60;;;;;;;3.70;67.63;100881.75;5039645;27;97312;-73
2021/04/04 05:12:24;;;;;;;19.60;8.13;;;;;;;4.11;66.85;100880.97;5038136;27;101392;-75
2021/04/04 05:14:50;;;;;;;17.00;8.60;;;;;;;4.53;65.97;100877.50;5017042;27;101459;-73
2021/04/04 05:17:15;;;;;;;14.43;8.03;;;;;;;4.97;64.99;100881.81;5021921;27;98271;-75
2021/04/04 05:19:41;;;;;;;16.30;7.37;;;;;;;5.16;64.28;100882.59;5039027;27;96879;-73
2021/04/04 05:22:10;;;;;;;13.97;6.70;;;;;;;5.42;63.78;100876.44;5021851;27;101546;-73
2021/04/04 05:24:37;;;;;;;12.97;6.13;;;;;;;5.51;63.12;100885.97;5037941;27;101616;-74
2021/04/04 05:27:03;;;;;;;13.10;6.33;;;;;;;6.00;62.72;100884.00;5055997;27;96631;-74
2021/04/04 05:29:28;;;;;;;12.37;5.60;;;;;;;6.39;61.27;100881.97;5038145;27;96853;-74
2021/04/04 05:31:55;;;;;;;11.63;5.30;;;;;;;6.32;61.17;100888.97;5039238;27;97928;-74
2021/04/04 05:34:24;;;;;;;11.60;6.07;;;;;;;5.38;63.10;100898.16;5038362;27;101220;-77
2021/04/04 05:36:49;;;;;;;14.17;6.97;;;;;;;5.39;63.28;100889.47;5055985;27;97034;-74
2021/04/04 05:39:17;;;;;;;14.47;7.33;;;;;;;5.22;63.30;100893.00;5038596;27;96948;-74
2021/04/04 05:41:47;;;;;;;14.90;7.60;;;;;;;5.28;63.44;100896.47;5036939;27;101389;-74
2021/04/04 05:44:16;;;;;;;14.77;7.77;;;;;;;5.42;63.30;100894.69;5038726;27;101557;-74
2021/04/04 05:46:44;;;;;;;17.37;9.10;;;;;;;5.57;63.03;100889.41;5055152;27;96676;-74
2021/04/04 05:49:20;;;;;;;14.03;7.37;;;;;;;5.66;63.02;100894.56;5022160;27;96600;-74
2021/04/04 05:51:58;;;;;;;12.90;6.70;;;;;;;6.01;61.97;100890.94;5021620;27;101760;-74
2021/04/04 05:54:53;;;;;;;16.20;7.20;;;;;;;6.69;60.58;100891.31;5037608;27;101825;-74
2021/04/04 05:57:41;;;;;;;15.70;7.93;;;;;;;6.50;60.80;100894.94;5029792;27;96856;-75
2021/04/04 06:00:08;;;;;;;20.97;12.00;;;;;;;6.39;60.90;100892.41;5034772;27;96890;-74
2021/04/04 06:02:46;;;;;;;16.00;9.43;;;;;;;6.19;61.95;100899.50;5023848;27;100298;-74
2021/04/04 06:05:36;;;;;;;13.20;7.07;;;;;;;6.21;61.64;100909.06;5038258;27;100846;-74
2021/04/04 06:08:25;;;;;;;12.23;6.03;;;;;;;6.21;61.51;100911.66;5055020;27;96692;-74
2021/04/04 06:10:58;;;;;;;12.40;5.77;;;;;;;6.08;62.39;100905.66;5038506;27;96681;-74
2021/04/04 06:13:31;;;;;;;9.70;5.90;;;;;;;5.80;63.11;100909.28;5037247;27;101369;-75
2021/04/04 06:16:11;;;;;;;13.33;6.03;;;;;;;5.87;63.04;100905.75;5022700;27;101784;-74
2021/04/04 06:19:14;;;;;;;11.73;6.10;;;;;;;5.77;62.93;100907.53;5041665;27;97006;-74
2021/04/04 06:21:58;;;;;;;12.67;6.30;;;;;;;5.78;63.42;100901.44;5075113;27;96919;-74
2021/04/04 06:24:40;;;;;;;11.23;6.93;;;;;;;6.19;61.81;100896.91;5041148;27;101100;-76
2021/04/04 06:27:08;;;;;;;;;;;;;;;6.96;60.80;100891.91;5059477;27;101105;-74
2021/04/04 06:29:46;;;;;;;10.17;5.30;;;;;;;7.64;58.69;100898.06;5057710;27;96918;-74
2021/04/04 06:32:28;;;;;;;10.13;5.93;;;;;;;7.91;57.78;100889.03;5041976;27;96609;-74
2021/04/04 06:35:00;;;;;;;;;;;;;;;9.25;54.10;100889.41;5041842;27;98572;-74
2021/04/04 06:37:43;;;;;;;11.25;6.22;;;;;;;12.84;47.10;100879.81;5023855;27;101211;-75
2021/04/04 06:40:22;;;;;;;10.15;6.00;;;;;;;15.57;41.99;100871.53;5057928;27;96802;-74
2021/04/04 06:43:07;;;;;;;9.13;5.80;;;;;;;17.12;38.68;100867.47;5041234;27;96961;-74
2021/04/04 06:45:57;;;;;;;13.18;6.00;;;;;;;18.21;36.75;100861.53;5040548;27;100741;-73
2021/04/04 06:48:35;;;;;;;13.90;8.27;;;;;;;17.07;38.27;100866.00;5058188;27;97914;-75
2021/04/04 06:51:13;;;;;;;10.70;5.68;;;;;;;17.06;38.12;100862.50;5041436;27;96996;-73
2021/04/04 06:53:59;;;;;;;10.68;5.50;;;;;;;20.00;34.20;100844.41;5041040;27;96938;-73
2021/04/04 06:57:06;;;;;;;10.90;4.85;;;;;;;21.11;32.59;100851.19;5045820;27;101635;-75
2021/04/04 06:59:42;;;;;;;15.20;11.55;;;;;;;21.25;32.20;100852.91;5061273;27;97453;-73
2021/04/04 07:02:09;;;;;;;9.82;5.18;;;;;;;22.21;31.18;100852.28;5024002;27;96717;-73
2021/04/04 07:04:40;;;;;;;10.63;5.55;;;;;;;22.06;30.45;100847.06;5057520;27;96943;-73
2021/04/04 07:07:27;;;;;;;10.07;5.60;;;;;;;22.38;30.34;100849.19;5041118;27;101142;-73
2021/04/04 07:10:32;;;;;;;7.93;4.57;;;;;;;23.43;29.16;100855.38;5075052;27;101256;-74
2021/04/04 07:13:05;;;;;;;7.22;4.50;;;;;;;19.30;33.88;100854.22;5041455;27;96925;-74
2021/04/04 07:15:52;;;;;;;8.85;5.18;;;;;;;21.33;31.24;100849.69;5040383;27;96799;-72
2021/04/04 07:18:35;;;;;;;10.05;5.80;;;;;;;21.67;30.66;100846.34;5057160;27;101682;-72
2021/04/04 07:21:04;;;;;;;10.18;5.78;;;;;;;21.84;30.70;100849.59;5040870;27;101997;-72
2021/04/04 07:23:45;;;;;;;7.05;4.85;;;;;;;20.84;31.75;100837.94;5039914;27;96570;-74
2021/04/04 07:26:53;;;;;;;9.93;5.78;;;;;;;20.67;31.79;100840.91;5058101;27;96685;-72
2021/04/04 07:29:56;;;;;;;11.15;5.57;;;;;;;19.48;33.85;100844.22;5056950;27;98536;-72
2021/04/04 07:32:43;;;;;;;9.82;6.57;;;;;;;18.47;35.12;100848.50;5057061;27;101669;-72
2021/04/04 07:35:14;;;;;;;6.15;4.57;;;;;;;16.68;37.88;100845.88;5057928;27;96761;-72
2021/04/04 07:37:46;;;;;;;9.18;5.32;;;;;;;15.09;40.64;100841.94;5023095;27;96798;-72
2021/04/04 07:40:28;;;;;;;7.65;4.75;;;;;;;16.58;38.92;100841.97;5039636;27;101458;-72
2021/04/04 07:43:03;;;;;;;8.63;5.05;;;;;;;18.16;36.20;100834.38;5039906;27;101642;-72
2021/04/04 07:46:13;;;;;;;8.30;4.68;;;;;;;18.86;34.55;100842.66;5040373;27;96787;-74
2021/04/04 07:48:43;;;;;;;8.40;4.70;;;;;;;21.37;31.49;100832.50;5048349;27;96990;-73
2021/04/04 07:51:16;;;;;;;7.70;4.15;;;;;;;23.17;29.27;100834.19;5040191;27;102060;-72
2021/04/04 07:53:47;;;;;;;10.00;4.75;;;;;;;23.56;29.00;100831.13;5056395;27;101250;-73
2021/04/04 07:56:20;;;;;;;6.18;3.90;;;;;;;24.16;27.67;100827.97;5040198;27;96632;-73
2021/04/04 07:59:13;;;;;;;8.32;4.70;;;;;;;24.75;27.05;100826.63;5022801;27;97051;-73
2021/04/04 08:01:43;;;;;;;9.52;5.05;;;;;;;25.21;26.76;100824.50;5056028;27;98152;-73
2021/04/04 08:04:29;;;;;;;8.77;4.45;;;;;;;25.48;26.47;100826.56;5023254;27;101095;-73
2021/04/04 08:06:57;;;;;;;5.88;4.03;;;;;;;24.86;26.88;100828.38;5040007;27;96698;-73
2021/04/04 08:09:26;;;;;;;8.55;4.55;;;;;;;26.08;25.47;100823.91;5039803;27;98485;-73
2021/04/04 08:12:31;;;;;;;7.45;4.32;;;;;;;24.76;26.94;100824.81;5039248;27;101187;-73
2021/04/04 08:15:03;;;;;;;6.97;4.43;;;;;;;23.22;28.49;100839.19;5073812;27;100005;-73
2021/04/04 08:17:29;;;;;;;6.82;3.88;;;;;;;24.87;26.01;100832.78;5040067;27;96747;-76
2021/04/04 08:20:26;;;;;;;16.27;14.80;;;;;;;26.41;24.61;100820.81;5022736;27;96907;-73
2021/04/04 08:23:04;;;;;;;9.60;4.15;;;;;;;26.03;24.73;100826.16;5038772;27;98263;-73
2021/04/04 08:25:51;;;;;;;9.20;4.70;;;;;;;22.87;28.33;100836.59;5039595;27;101329;-73
2021/04/04 08:28:34;;;;;;;9.45;4.53;;;;;;;20.93;30.89;100839.13;5057311;27;96600;-73
2021/04/04 08:31:26;;;;;;;7.18;4.50;;;;;;;18.40;33.81;100841.84;5056986;27;96958;-73
2021/04/04 08:34:10;;;;;;;11.60;5.70;;;;;;;17.10;35.37;100845.47;5055797;27;100927;-73
2021/04/04 08:36:43;;;;;;;10.90;5.38;;;;;;;19.40;32.65;100836.69;5055729;27;97870;-74
2021/04/04 08:39:09;;;;;;;8.60;4.10;;;;;;;22.80;28.95;100829.00;5039132;27;96894;-72
2021/04/04 08:41:37;;;;;;;7.22;3.85;;;;;;;23.03;28.54;100827.25;5050280;27;99705;-75
2021/04/04 08:44:16;;;;;;;7.80;4.72;;;;;;;21.91;29.23;100829.50;5036038;27;101209;-73
2021/04/04 08:46:47;;;;;;;5.47;3.63;;;;;;;22.40;29.00;100825.00;5035312;27;100873;-73
2021/04/04 08:49:14;;;;;;;10.30;3.60;;;;;;;19.99;31.46;100826.72;5035883;27;96768;-73
2021/04/04 08:51:43;;;;;;;4.43;2.90;;;;;;;18.90;32.44;100833.53;5018798;27;96715;-73
2021/04/04 08:54:15;;;;;;;4.43;2.63;;;;;;;17.30;34.93;100828.47;5019096;27;102053;-72
2021/04/04 08:56:42;;;;;;;7.70;3.40;;;;;;;20.23;31.31;100818.91;5018338;27;101533;-73
2021/04/04 08:59:08;;;;;;;9.57;5.45;;;;;;;17.96;33.84;100824.88;5019054;27;97240;-72
2021/04/04 09:01:38;;;;;;;5.25;2.22;;;;;;;20.94;30.42;100816.81;5036189;27;96813;-76
2021/04/04 09:04:06;;;;;;;4.97;2.65;;;;;;;22.91;28.69;100814.78;5035783;27;101500;-72
2021/04/04 09:06:38;;;;;;;4.57;2.83;;;;;;;21.89;27.97;100813.56;5036112;27;101007;-72
2021/04/04 09:09:14;;;;;;;4.60;2.70;;;;;;;18.70;31.50;100829.41;5035902;27;96825;-72
2021/04/04 09:11:40;;;;;;;5.43;2.50;;;;;;;17.17;33.48;100822.13;5035210;27;96820;-73
2021/04/04 09:14:06;;;;;;;5.30;2.40;;;;;;;17.13;33.10;100821.44;5035076;27;101694;-72
2021/04/04 09:16:32;;;;;;;5.97;2.60;;;;;;;17.37;33.37;100811.31;5035568;27;101685;-72
2021/04/04 09:18:58;;;;;;;7.40;2.90;;;;;;;18.20;33.96;100819.94;5035317;27;96632;-73
2021/04/04 09:21:24;;;;;;;9.90;8.90;;;;;;;17.53;33.87;100815.75;5036157;27;96866;-72
2021/04/04 09:23:53;;;;;;;12.50;11.10;;;;;;;16.73;34.49;100815.56;5034633;27;101234;-72
2021/04/04 09:26:24;;;;;;;10.95;2.22;;;;;;;16.92;34.97;100812.81;5035411;27;101472;-72
2021/04/04 09:28:50;;;;;;;2.88;1.45;;;;;;;16.67;34.92;100812.38;5034971;27;97334;-72
2021/04/04 09:31:25;;;;;;;5.88;2.15;;;;;;;16.74;34.31;100803.16;5019285;27;96999;-72
2021/04/04 09:34:02;;;;;;;5.22;2.28;;;;;;;16.55;34.42;100805.03;5034617;27;101804;-72
2021/04/04 09:36:43;;;;;;;3.08;2.22;;;;;;;15.59;34.88;100803.50;5035367;27;101623;-72
2021/04/04 09:39:09;;;;;;;;;;;;;;;15.93;35.09;100801.94;5035778;27;96654;-72
2021/04/04 09:41:36;;;;;;;4.40;2.30;;;;;;;16.55;34.47;100802.38;5034944;27;96870;-72
2021/04/04 09:44:07;;;;;;;4.50;1.92;;;;;;;16.21;35.23;100791.72;5051927;27;97965;-72
2021/04/04 09:46:33;;;;;;;5.38;2.05;;;;;;;15.75;35.91;100793.09;5052109;27;100923;-72
2021/04/04 09:48:59;;;;;;;4.50;2.13;;;;;;;15.26;36.30;100803.31;5034513;27;96681;-72
2021/04/04 09:51:25;;;;;;;6.07;2.40;;;;;;;14.68;36.30;100804.13;5034457;27;96913;-72
2021/04/04 09:53:52;;;;;;;4.60;2.00;;;;;;;14.34;36.50;100802.91;5017406;27;101456;-72
2021/04/04 09:56:21;;;;;;;5.57;1.95;;;;;;;14.58;36.06;100802.81;5035542;27;97932;-72
2021/04/04 09:58:48;;;;;;;5.18;2.10;;;;;;;14.69;35.48;100796.13;5034370;27;97701;-72
2021/04/04 10:01:17;;;;;;;3.47;2.22;;;;;;;14.75;35.62;100788.84;5035476;27;97045;-72
2021/04/04 10:03:53;;;;;;;4.78;2.72;;;;;;;15.06;35.58;100791.84;5033637;27;99998;-73
2021/04/04 10:06:19;;;;;;;9.95;5.70;;;;;;;14.92;36.36;100781.91;5051717;27;101861;-72
2021/04/04 10:08:55;;;;;;;9.15;5.00;;;;;;;14.42;36.96;100784.91;5034655;27;96671;-72
2021/04/04 10:11:21;;;;;;;3.97;2.53;;;;;;;13.98;38.07;100785.00;5018708;27;97065;-72
2021/04/04 10:13:47;;;;;;;7.05;2.40;;;;;;;13.68;38.17;100787.09;5034669;27;97679;-72
2021/04/04 10:16:20;;;;;;;10.48;4.80;;;;;;;13.38;38.63;100791.78;5034853;27;101247;-72
2021/04/04 10:19:00;;;;;;;8.98;4.45;;;;;;;13.14;38.21;100780.34;5051097;27;96696;-72
2021/04/04 10:21:26;;;;;;;6.05;3.17;;;;;;;13.20;38.64;100784.53;5018695;27;96875;-72
2021/04/04 10:23:51;;;;;;;5.95;2.45;;;;;;;13.50;38.60;100777.28;5033749;27;100961;-71
2021/04/04 10:26:19;;;;;;;8.43;2.22;;;;;;;13.67;39.26;100772.19;5034649;27;101126;-72
2021/04/04 10:29:01;;;;;;;6.20;2.60;;;;;;;13.75;38.00;100769.22;5033852;27;96694;-72
2021/04/04 10:31:44;;;;;;;4.32;2.28;;;;;;;13.85;36.86;100762.69;5019149;27;96863;-72
2021/04/04 10:34:09;;;;;;;4.25;2.33;;;;;;;14.32;37.12;100762.47;5017827;27;101258;-72
2021/04/04 10:36:35;;;;;;;3.65;1.50;;;;;;;14.58;35.62;100765.81;5034499;27;97624;-72
2021/04/04 10:39:01;;;;;;;2.65;2.03;;;;;;;14.50;34.29;100763.47;5033475;27;96657;-72
2021/04/04 10:41:28;;;;;;;4.80;2.42;;;;;;;14.49;35.93;100759.97;5034393;27;96867;-72
2021/04/04 10:43:54;;;;;;;2.63;1.80;;;;;;;14.57;34.66;100761.44;5050689;27;97726;-72
2021/04/04 10:46:24;;;;;;;3.78;2.15;;;;;;;14.50;36.15;100752.91;5034708;27;101113;-72
2021/04/04 10:48:50;;;;;;;5.32;2.38;;;;;;;14.75;36.14;100751.84;5034702;27;96729;-72
2021/04/04 10:51:19;;;;;;;4.07;2.03;;;;;;;14.28;33.75;100739.75;5034927;27;97089;-72
2021/04/04 10:53:45;;;;;;;2.78;1.95;;;;;;;14.12;35.23;100741.34;5033202;27;101623;-76
2021/04/04 10:56:12;;;;;;;5.43;2.28;;;;;;;14.47;35.01;100735.41;5017544;27;101141;-72
2021/04/04 10:58:39;;;;;;;4.20;1.92;;;;;;;14.46;35.01;100736.34;5051602;27;96999;-72
2021/04/04 11:01:05;;;;;;;3.28;1.90;;;;;;;14.23;35.58;100728.56;5033900;27;97466;-72
2021/04/04 11:03:31;;;;;;;4.68;2.33;;;;;;;14.13;37.00;100720.16;5037541;27;101435;-72
2021/04/04 11:05:58;;;;;;;4.93;1.90;;;;;;;14.10;37.06;100717.63;5036836;27;101648;-72
2021/04/04 11:08:23;;;;;;;3.47;2.22;;;;;;;13.82;37.29;100725.88;5037957;27;96725;-72
2021/04/04 11:10:50;;;;;;;6.30;1.88;;;;;;;13.46;37.92;100730.81;5054773;27;96863;-72
2021/04/04 11:13:18;;;;;;;10.55;2.55;;;;;;;13.47;38.68;100732.56;5037452;27;100876;-72
2021/04/04 11:15:58;;;;;;;3.40;1.92;;;;;;;13.65;39.61;100718.63;5054487;27;97532;-74
2021/04/04 11:18:27;;;;;;;4.15;1.80;;;;;;;13.67;35.51;100724.72;5020318;27;96655;-72
2021/04/04 11:20:55;;;;;;;6.22;1.98;;;;;;;13.64;34.48;100708.97;5037316;27;96828;-72
2021/04/04 11:23:21;;;;;;;3.08;1.88;;;;;;;13.59;35.75;100711.81;5037238;27;101047;-72
2021/04/04 11:25:46;;;;;;;5.95;1.50;;;;;;;13.61;35.53;100709.09;5036436;27;101306;-72
2021/04/04 11:28:26;;;;;;;3.65;2.10;;;;;;;13.40;34.68;100708.19;5037001;27;97005;-72
2021/04/04 11:30:54;;;;;;;5.55;2.22;;;;;;;13.28;34.70;100701.63;5037684;27;96678;-72
2021/04/04 11:33:23;;;;;;;2.97;1.45;;;;;;;13.32;34.15;100694.44;5037265;27;101344;-72
2021/04/04 11:36:13;;;;;;;6.95;1.80;;;;;;;13.32;35.21;100692.69;5020264;27;101672;-76
2021/04/04 11:38:50;;;;;;;4.55;2.30;;;;;;;13.36;35.23;100694.28;5054706;27;97325;-74